createdAt,value
2017-12-26T00:01:49.103Z,51.50
2017-12-26T00:04:16.675Z,51.50
2017-12-26T00:09:13.135Z,51.50
2017-12-26T00:11:40.863Z,51.50
2017-12-26T00:14:08.303Z,51.40
2017-12-26T00:16:35.739Z,51.40
2017-12-26T00:19:03.159Z,51.50
2017-12-26T00:21:30.595Z,51.40
2017-12-26T00:23:58.041Z,51.50
2017-12-26T00:26:25.465Z,51.50
2017-12-26T00:28:52.911Z,51.50
2017-12-26T00:31:21.462Z,51.40
2017-12-26T00:33:48.985Z,51.40
2017-12-26T00:36:16.617Z,51.40
2017-12-26T00:38:44.156Z,51.30
2017-12-26T00:41:11.623Z,51.30
2017-12-26T00:43:39.064Z,51.30
2017-12-26T00:46:07.259Z,51.40
2017-12-26T00:48:34.710Z,51.40
2017-12-26T00:51:02.149Z,51.30
2017-12-26T00:53:30.342Z,51.30
2017-12-26T00:55:57.813Z,51.30
2017-12-26T00:58:25.276Z,51.30
2017-12-26T01:00:52.769Z,51.30
2017-12-26T01:03:20.457Z,51.40
2017-12-26T01:05:47.958Z,51.40
2017-12-26T01:08:15.443Z,51.40
2017-12-26T01:10:43.006Z,51.40
2017-12-26T01:13:11.978Z,51.40
2017-12-26T01:15:39.420Z,51.40
2017-12-26T01:18:07.448Z,51.40
2017-12-26T01:20:35.646Z,51.30
2017-12-26T01:23:03.086Z,51.40
2017-12-26T01:25:30.528Z,51.40
2017-12-26T01:27:58.732Z,51.30
2017-12-26T01:30:26.161Z,51.30
2017-12-26T01:32:53.609Z,51.30
2017-12-26T01:35:21.833Z,51.30
2017-12-26T01:37:49.405Z,51.30
2017-12-26T01:40:17.051Z,51.30
2017-12-26T01:42:44.838Z,51.50
2017-12-26T01:45:12.305Z,51.30
2017-12-26T01:47:39.709Z,51.30
2017-12-26T01:50:07.122Z,51.30
2017-12-26T01:52:35.310Z,50.80
2017-12-26T01:55:02.750Z,51.30
2017-12-26T01:57:30.952Z,51.30
2017-12-26T01:59:58.387Z,51.30
2017-12-26T02:02:26.631Z,51.30
2017-12-26T02:04:54.079Z,51.30
2017-12-26T02:07:21.502Z,51.30
2017-12-26T02:09:48.978Z,51.30
2017-12-26T02:12:16.488Z,51.30
2017-12-26T02:14:44.051Z,51.30
2017-12-26T02:17:12.446Z,51.30
2017-12-26T02:19:39.886Z,51.10
2017-12-26T02:22:07.306Z,51.30
2017-12-26T02:24:34.741Z,51.20
2017-12-26T02:27:10.049Z,51.20
2017-12-26T02:29:37.495Z,51.20
2017-12-26T02:32:04.917Z,51.20
2017-12-26T02:34:32.441Z,51.20
2017-12-26T02:36:59.870Z,51.20
2017-12-26T02:39:27.328Z,51.20
2017-12-26T02:41:54.746Z,51.20
2017-12-26T02:44:23.024Z,51.80
2017-12-26T02:46:50.486Z,51.20
2017-12-26T02:49:19.605Z,51.20
2017-12-26T02:51:47.141Z,51.20
2017-12-26T02:54:14.634Z,51.20
2017-12-26T02:56:42.110Z,51.10
2017-12-26T02:59:09.662Z,51.10
2017-12-26T03:01:37.099Z,51.10
2017-12-26T03:04:04.568Z,51.10
2017-12-26T03:06:31.982Z,51.10
2017-12-26T03:09:00.193Z,51.10
2017-12-26T03:11:27.657Z,51.00
2017-12-26T03:13:55.168Z,51.10
2017-12-26T03:16:22.887Z,51.10
2017-12-26T03:18:50.366Z,51.10
2017-12-26T03:21:17.835Z,51.10
2017-12-26T03:23:46.022Z,51.70
2017-12-26T03:26:13.467Z,51.00
2017-12-26T03:28:41.671Z,51.00
2017-12-26T03:31:09.116Z,51.00
2017-12-26T03:33:36.539Z,51.00
2017-12-26T03:36:03.983Z,51.00
2017-12-26T03:38:31.491Z,50.60
2017-12-26T03:40:59.000Z,51.00
2017-12-26T03:43:26.765Z,50.90
2017-12-26T03:45:54.993Z,50.90
2017-12-26T03:48:22.415Z,50.90
2017-12-26T03:50:50.623Z,51.00
2017-12-26T03:53:18.046Z,50.90
2017-12-26T03:55:46.257Z,51.00
2017-12-26T03:58:13.686Z,50.90
2017-12-26T04:00:41.128Z,50.80
2017-12-26T04:03:09.331Z,51.00
2017-12-26T04:05:36.792Z,50.90
2017-12-26T04:08:04.205Z,51.00
2017-12-26T04:10:32.415Z,50.90
2017-12-26T04:12:59.871Z,50.90
2017-12-26T04:15:27.318Z,50.90
2017-12-26T04:17:54.742Z,50.90
2017-12-26T04:20:22.959Z,50.90
2017-12-26T04:22:51.287Z,50.90
2017-12-26T04:25:18.858Z,50.90
2017-12-26T04:27:47.209Z,50.80
2017-12-26T04:30:14.898Z,50.90
2017-12-26T04:32:42.369Z,50.90
2017-12-26T04:35:09.805Z,50.90
2017-12-26T04:37:38.004Z,50.80
2017-12-26T04:40:05.426Z,50.80
2017-12-26T04:42:33.636Z,51.20
2017-12-26T04:45:01.058Z,50.90
2017-12-26T04:47:29.266Z,50.90
2017-12-26T04:49:56.739Z,50.90
2017-12-26T04:52:24.249Z,50.90
2017-12-26T04:54:52.564Z,50.90
2017-12-26T04:57:20.645Z,50.90
2017-12-26T04:59:49.360Z,50.90
2017-12-26T05:02:16.954Z,50.80
2017-12-26T05:04:45.268Z,50.90
2017-12-26T05:07:12.984Z,50.80
2017-12-26T05:09:41.479Z,50.90
2017-12-26T05:12:09.065Z,50.90
2017-12-26T05:14:36.485Z,50.80
2017-12-26T05:17:03.927Z,50.90
2017-12-26T05:19:32.127Z,50.90
2017-12-26T05:21:59.567Z,50.90
2017-12-26T05:24:27.767Z,50.90
2017-12-26T05:26:55.297Z,50.90
2017-12-26T05:29:23.518Z,50.90
2017-12-26T05:31:51.010Z,50.90
2017-12-26T05:34:18.516Z,50.90
2017-12-26T05:36:47.363Z,50.90
2017-12-26T05:39:15.001Z,50.90
2017-12-26T05:41:42.449Z,51.00
2017-12-26T05:44:09.870Z,50.90
2017-12-26T05:46:37.313Z,51.00
2017-12-26T05:49:04.754Z,50.90
2017-12-26T05:51:32.961Z,51.00
2017-12-26T05:54:00.404Z,51.00
2017-12-26T05:56:28.640Z,50.90
2017-12-26T05:58:56.118Z,50.90
2017-12-26T06:01:25.144Z,50.90
2017-12-26T06:03:52.562Z,50.90
2017-12-26T06:06:20.832Z,51.00
2017-12-26T06:08:49.058Z,50.90
2017-12-26T06:11:17.359Z,50.80
2017-12-26T06:13:45.265Z,51.00
2017-12-26T06:16:12.931Z,50.90
2017-12-26T06:18:40.387Z,51.00
2017-12-26T06:21:07.838Z,50.90
2017-12-26T06:23:35.266Z,51.00
2017-12-26T06:26:03.459Z,51.00
2017-12-26T06:28:30.899Z,50.90
2017-12-26T06:30:59.094Z,51.00
2017-12-26T06:33:28.107Z,51.00
2017-12-26T06:35:55.534Z,51.00
2017-12-26T06:38:23.016Z,51.00
2017-12-26T06:40:50.520Z,51.00
2017-12-26T06:43:20.269Z,51.00
2017-12-26T06:45:48.174Z,51.00
2017-12-26T06:48:15.615Z,51.10
2017-12-26T06:50:43.047Z,51.10
2017-12-26T06:53:10.509Z,51.10
2017-12-26T06:55:37.922Z,51.10
2017-12-26T06:58:06.130Z,51.20
2017-12-26T07:00:33.563Z,51.10
2017-12-26T07:03:01.779Z,51.20
2017-12-26T07:05:29.206Z,51.20
2017-12-26T07:07:56.650Z,51.10
2017-12-26T07:10:24.842Z,51.20
2017-12-26T07:12:52.299Z,51.20
2017-12-26T07:15:19.735Z,51.20
2017-12-26T07:17:49.065Z,51.20
2017-12-26T07:20:24.193Z,51.20
2017-12-26T07:22:51.758Z,51.30
2017-12-26T07:25:19.187Z,51.30
2017-12-26T07:27:47.598Z,51.30
2017-12-26T07:30:18.021Z,51.30
2017-12-26T07:32:47.527Z,51.30
2017-12-26T07:35:15.609Z,51.30
2017-12-26T07:37:43.408Z,51.40
2017-12-26T07:40:10.834Z,51.30
2017-12-26T07:42:38.438Z,51.40
2017-12-26T07:45:05.867Z,51.40
2017-12-26T07:47:33.289Z,51.50
2017-12-26T07:50:00.727Z,51.40
2017-12-26T07:52:28.162Z,51.40
2017-12-26T07:54:56.414Z,51.50
2017-12-26T07:57:24.194Z,51.50
2017-12-26T07:59:52.535Z,51.50
2017-12-26T08:02:23.480Z,51.60
2017-12-26T08:04:50.942Z,51.50
2017-12-26T08:07:18.393Z,51.60
2017-12-26T08:09:46.094Z,51.60
2017-12-26T08:12:15.324Z,51.40
2017-12-26T08:14:45.394Z,51.60
2017-12-26T08:17:15.424Z,51.60
2017-12-26T08:19:45.523Z,51.60
2017-12-26T08:22:14.457Z,51.60
2017-12-26T08:24:43.230Z,52.20
2017-12-26T08:27:11.286Z,51.60
2017-12-26T08:29:38.730Z,51.50
2017-12-26T08:32:06.926Z,51.60
2017-12-26T08:34:34.395Z,51.60
2017-12-26T08:37:01.819Z,51.60
2017-12-26T08:39:30.091Z,51.60
2017-12-26T08:41:58.306Z,51.70
2017-12-26T08:44:25.769Z,51.60
2017-12-26T08:46:53.235Z,51.60
2017-12-26T08:49:21.914Z,51.60
2017-12-26T08:51:53.556Z,51.60
2017-12-26T08:54:23.076Z,51.70
2017-12-26T08:56:52.498Z,51.80
2017-12-26T08:59:22.361Z,52.10
2017-12-26T09:01:52.821Z,52.40
2017-12-26T09:04:22.360Z,52.60
2017-12-26T09:06:52.612Z,52.60
2017-12-26T09:09:20.237Z,52.40
2017-12-26T09:11:48.115Z,53.00
2017-12-26T09:14:17.035Z,53.10
2017-12-26T09:16:46.894Z,53.50
2017-12-26T09:19:16.838Z,53.40
2017-12-26T09:21:46.842Z,53.50
2017-12-26T09:24:18.312Z,53.40
2017-12-26T09:26:48.032Z,53.40
2017-12-26T09:29:17.993Z,53.50
2017-12-26T09:31:48.180Z,53.40
2017-12-26T09:34:18.215Z,53.40
2017-12-26T09:36:48.197Z,53.40
2017-12-26T09:39:17.529Z,53.50
2017-12-26T09:41:45.283Z,53.50
2017-12-26T09:44:12.771Z,53.60
2017-12-26T09:46:40.275Z,53.70
2017-12-26T09:49:07.785Z,53.80
2017-12-26T09:51:35.284Z,53.90
2017-12-26T09:54:02.723Z,53.90
2017-12-26T09:56:31.016Z,53.90
2017-12-26T09:59:00.066Z,53.90
2017-12-26T10:01:27.535Z,53.90
2017-12-26T10:03:56.118Z,53.90
2017-12-26T10:06:23.560Z,53.80
2017-12-26T10:08:51.002Z,53.90
2017-12-26T10:11:18.435Z,53.80
2017-12-26T10:13:47.158Z,53.70
2017-12-26T10:16:16.363Z,53.70
2017-12-26T10:18:46.461Z,53.60
2017-12-26T10:21:17.629Z,53.60
2017-12-26T10:23:46.890Z,54.40
2017-12-26T10:26:18.103Z,53.80
2017-12-26T10:28:50.239Z,53.80
2017-12-26T10:31:34.707Z,53.80
2017-12-26T10:34:02.211Z,53.80
2017-12-26T10:36:29.765Z,53.80
2017-12-26T10:38:57.225Z,53.80
2017-12-26T10:41:27.935Z,53.70
2017-12-26T10:43:55.664Z,53.90
2017-12-26T10:46:24.596Z,53.90
2017-12-26T10:48:55.712Z,53.90
2017-12-26T10:51:26.219Z,54.00
2017-12-26T10:53:58.042Z,54.00
2017-12-26T10:56:30.835Z,53.90
2017-12-26T10:58:58.320Z,53.90
2017-12-26T11:01:25.881Z,53.70
2017-12-26T11:03:53.375Z,53.60
2017-12-26T11:06:20.819Z,53.60
2017-12-26T11:08:48.334Z,53.50
2017-12-26T11:11:17.335Z,53.40
2017-12-26T11:13:46.166Z,52.60
2017-12-26T11:16:14.447Z,52.60
2017-12-26T11:18:42.048Z,52.10
2017-12-26T11:21:10.339Z,48.40
2017-12-26T11:23:38.537Z,47.90
2017-12-26T11:26:06.094Z,47.90
2017-12-26T11:28:33.530Z,47.80
2017-12-26T11:31:00.991Z,47.90
2017-12-26T11:33:28.432Z,48.00
2017-12-26T11:35:56.750Z,47.60
2017-12-26T11:38:24.204Z,47.50
2017-12-26T11:40:52.404Z,47.80
2017-12-26T11:43:22.857Z,48.40
2017-12-26T11:45:51.856Z,49.40
2017-12-26T11:48:21.136Z,49.40
2017-12-26T11:50:49.996Z,49.80
2017-12-26T11:53:18.367Z,50.50
2017-12-26T11:55:46.323Z,50.40
2017-12-26T11:58:13.752Z,50.70
2017-12-26T12:00:41.203Z,50.90
2017-12-26T12:03:08.637Z,51.10
2017-12-26T12:05:36.885Z,51.90
2017-12-26T12:08:04.316Z,51.20
2017-12-26T12:10:31.778Z,51.40
2017-12-26T12:12:59.213Z,51.50
2017-12-26T12:15:26.652Z,51.50
2017-12-26T12:17:54.103Z,51.50
2017-12-26T12:20:22.310Z,51.60
2017-12-26T12:22:49.818Z,51.60
2017-12-26T12:25:18.813Z,51.70
2017-12-26T12:27:47.371Z,51.70
2017-12-26T12:30:14.915Z,51.60
2017-12-26T12:32:43.271Z,51.70
2017-12-26T12:35:10.715Z,51.60
2017-12-26T12:37:38.158Z,51.70
2017-12-26T12:40:06.379Z,51.50
2017-12-26T12:42:33.828Z,51.50
2017-12-26T12:45:01.271Z,51.60
2017-12-26T12:47:28.715Z,51.60
2017-12-26T12:49:56.237Z,51.60
2017-12-26T12:52:24.395Z,51.60
2017-12-26T12:54:52.398Z,51.60
2017-12-26T12:57:20.549Z,51.70
2017-12-26T12:59:48.239Z,51.60
2017-12-26T13:02:15.700Z,51.60
2017-12-26T13:04:45.731Z,51.70
2017-12-26T13:07:15.756Z,51.70
2017-12-26T13:09:45.306Z,51.60
2017-12-26T13:12:14.169Z,51.60
2017-12-26T13:14:41.619Z,51.60
2017-12-26T13:17:09.087Z,51.70
2017-12-26T13:19:36.519Z,51.70
2017-12-26T13:22:03.955Z,51.70
2017-12-26T13:24:31.399Z,51.70
2017-12-26T13:26:58.862Z,51.70
2017-12-26T13:29:26.288Z,51.60
2017-12-26T13:31:54.557Z,51.60
2017-12-26T13:34:22.062Z,51.60
2017-12-26T13:36:50.505Z,51.60
2017-12-26T13:39:20.356Z,51.60
2017-12-26T13:41:49.066Z,51.60
2017-12-26T13:44:16.590Z,51.60
2017-12-26T13:46:44.054Z,51.60
2017-12-26T13:49:11.475Z,51.60
2017-12-26T13:51:39.705Z,51.60
2017-12-26T13:54:07.915Z,51.60
2017-12-26T13:56:35.327Z,51.60
2017-12-26T13:59:02.772Z,51.60
2017-12-26T14:01:30.252Z,51.60
2017-12-26T14:03:57.663Z,51.60
2017-12-26T14:06:25.091Z,51.50
2017-12-26T14:08:53.344Z,51.60
2017-12-26T14:11:20.798Z,51.60
2017-12-26T14:13:48.565Z,51.50
2017-12-26T14:16:17.240Z,51.60
2017-12-26T14:18:45.990Z,51.50
2017-12-26T14:21:13.659Z,51.60
2017-12-26T14:23:41.106Z,51.60
2017-12-26T14:26:08.555Z,51.50
2017-12-26T14:28:36.010Z,51.50
2017-12-26T14:31:03.444Z,51.60
2017-12-26T14:33:31.650Z,51.60
2017-12-26T14:35:59.093Z,51.60
2017-12-26T14:38:26.699Z,51.50
2017-12-26T14:40:54.147Z,51.50
2017-12-26T14:43:22.201Z,51.50
2017-12-26T14:45:52.419Z,52.30
2017-12-26T14:48:21.629Z,51.60
2017-12-26T14:50:49.064Z,51.50
2017-12-26T14:53:16.650Z,51.50
2017-12-26T14:55:44.080Z,51.50
2017-12-26T14:58:11.619Z,51.50
2017-12-26T15:00:39.794Z,51.50
2017-12-26T15:03:07.299Z,51.50
2017-12-26T15:05:34.727Z,51.50
2017-12-26T15:08:02.163Z,51.50
2017-12-26T15:10:29.593Z,51.50
2017-12-26T15:12:57.782Z,51.50
2017-12-26T15:15:25.219Z,51.50
2017-12-26T15:17:52.676Z,51.40
2017-12-26T15:20:20.296Z,51.50
2017-12-26T15:22:49.073Z,51.40
2017-12-26T15:25:18.945Z,52.10
2017-12-26T15:27:48.342Z,51.60
2017-12-26T15:30:17.174Z,51.50
2017-12-26T15:32:44.886Z,51.70
2017-12-26T15:35:13.195Z,51.80
2017-12-26T15:37:40.619Z,51.80
2017-12-26T15:40:08.815Z,51.90
2017-12-26T15:42:36.238Z,51.70
2017-12-26T15:45:04.439Z,51.80
2017-12-26T15:47:31.858Z,51.80
2017-12-26T15:50:00.263Z,51.90
2017-12-26T15:52:28.468Z,52.10
2017-12-26T15:54:56.365Z,52.10
2017-12-26T15:57:25.517Z,52.40
2017-12-26T15:59:54.965Z,52.30
2017-12-26T16:02:24.861Z,52.50
2017-12-26T16:04:53.108Z,52.50
2017-12-26T16:07:20.538Z,52.50
2017-12-26T16:09:50.890Z,52.70
2017-12-26T16:12:19.231Z,52.70
2017-12-26T16:14:48.477Z,52.60
2017-12-26T16:17:18.270Z,52.50
2017-12-26T16:19:47.352Z,52.50
2017-12-26T16:22:16.060Z,52.60
2017-12-26T16:24:43.508Z,52.60
2017-12-26T16:27:10.933Z,52.70
2017-12-26T16:29:39.129Z,52.70
2017-12-26T16:32:06.553Z,52.70
2017-12-26T16:34:34.750Z,52.70
2017-12-26T16:37:02.178Z,52.70
2017-12-26T16:39:29.614Z,52.70
2017-12-26T16:41:57.555Z,52.80
2017-12-26T16:44:25.811Z,52.70
2017-12-26T16:46:57.570Z,52.80
2017-12-26T16:49:26.315Z,52.80
2017-12-26T16:51:55.378Z,52.80
2017-12-26T16:54:24.795Z,52.70
2017-12-26T16:56:54.559Z,52.70
2017-12-26T16:59:22.841Z,52.70
2017-12-26T17:01:50.463Z,52.80
2017-12-26T17:04:18.270Z,52.80
2017-12-26T17:06:48.584Z,52.70
2017-12-26T17:09:17.733Z,52.70
2017-12-26T17:11:46.120Z,52.80
2017-12-26T17:14:13.537Z,52.80
2017-12-26T17:16:40.967Z,52.70
2017-12-26T17:19:08.391Z,52.80
2017-12-26T17:21:36.583Z,52.80
2017-12-26T17:24:04.011Z,52.70
2017-12-26T17:26:32.202Z,52.80
2017-12-26T17:28:59.637Z,52.70
2017-12-26T17:31:27.063Z,52.70
2017-12-26T17:33:55.258Z,53.50
2017-12-26T17:36:23.059Z,52.80
2017-12-26T17:38:51.754Z,52.80
2017-12-26T17:41:20.242Z,52.70
2017-12-26T17:43:47.958Z,52.70
2017-12-26T17:46:16.175Z,52.80
2017-12-26T17:48:43.594Z,52.80
2017-12-26T17:51:11.803Z,52.80
2017-12-26T17:53:39.227Z,53.40
2017-12-26T17:56:07.449Z,52.70
2017-12-26T17:58:34.874Z,52.70
2017-12-26T18:01:03.086Z,52.70
2017-12-26T18:03:30.526Z,52.70
2017-12-26T18:05:57.953Z,52.70
2017-12-26T18:08:25.378Z,52.70
2017-12-26T18:10:52.826Z,52.70
2017-12-26T18:13:21.127Z,52.80
2017-12-26T18:15:49.265Z,52.80
2017-12-26T18:18:17.781Z,52.80
2017-12-26T18:20:45.437Z,52.90
2017-12-26T18:23:12.907Z,52.80
2017-12-26T18:25:40.337Z,52.80
2017-12-26T18:28:08.531Z,52.90
2017-12-26T18:30:35.959Z,52.80
2017-12-26T18:33:03.388Z,52.70
2017-12-26T18:35:30.813Z,52.60
2017-12-26T18:37:59.010Z,52.50
2017-12-26T18:40:27.159Z,52.50
2017-12-26T18:42:55.893Z,52.40
2017-12-26T18:45:26.721Z,52.50
2017-12-26T18:47:57.130Z,52.40
2017-12-26T18:50:27.160Z,52.50
2017-12-26T18:52:57.486Z,52.50
2017-12-26T18:55:26.988Z,52.50
2017-12-26T18:57:56.097Z,52.50
2017-12-26T19:00:26.866Z,52.50
2017-12-26T19:02:57.946Z,52.50
2017-12-26T19:05:25.905Z,52.40
2017-12-26T19:07:53.722Z,52.60
2017-12-26T19:10:22.531Z,52.60
2017-12-26T19:12:51.764Z,52.50
2017-12-26T19:15:20.112Z,52.50
2017-12-26T19:17:48.684Z,52.50
2017-12-26T19:20:16.566Z,52.50
2017-12-26T19:22:44.006Z,52.60
2017-12-26T19:25:11.437Z,52.40
2017-12-26T19:27:39.637Z,52.50
2017-12-26T19:30:07.063Z,52.40
2017-12-26T19:32:35.262Z,52.20
2017-12-26T19:35:02.691Z,52.20
2017-12-26T19:37:30.893Z,52.20
2017-12-26T19:39:58.334Z,52.20
2017-12-26T19:42:25.807Z,52.10
2017-12-26T19:44:53.774Z,52.20
2017-12-26T19:47:21.273Z,52.10
2017-12-26T19:49:48.694Z,52.00
2017-12-26T19:52:16.117Z,52.00
2017-12-26T19:54:44.315Z,52.00
2017-12-26T19:57:11.747Z,51.90
2017-12-26T19:59:39.941Z,51.90
2017-12-26T20:02:07.374Z,51.80
2017-12-26T20:04:35.572Z,51.80
2017-12-26T20:07:03.002Z,51.70
2017-12-26T20:09:31.194Z,51.70
2017-12-26T20:11:58.643Z,51.70
2017-12-26T20:14:26.067Z,51.60
2017-12-26T20:16:53.519Z,51.60
2017-12-26T20:19:20.951Z,51.50
2017-12-26T20:21:48.478Z,51.50
2017-12-26T20:24:15.894Z,51.40
2017-12-26T20:26:44.443Z,51.40
2017-12-26T20:29:26.528Z,51.40
2017-12-26T20:31:53.998Z,51.30
2017-12-26T20:34:21.537Z,52.00
2017-12-26T20:36:49.036Z,51.20
2017-12-26T20:39:16.470Z,51.20
2017-12-26T20:41:43.898Z,51.10
2017-12-26T20:44:11.325Z,51.10
2017-12-26T20:46:39.523Z,51.10
2017-12-26T20:49:06.958Z,51.10
2017-12-26T20:51:35.154Z,51.10
2017-12-26T20:54:02.584Z,51.10
2017-12-26T20:56:31.711Z,51.10
2017-12-26T20:58:59.166Z,51.10
2017-12-26T21:01:26.657Z,51.10
2017-12-26T21:03:54.065Z,51.00
2017-12-26T21:06:21.502Z,51.00
2017-12-26T21:08:49.763Z,51.00
2017-12-26T21:11:17.259Z,51.00
2017-12-26T21:13:45.076Z,50.90
2017-12-26T21:16:12.614Z,51.00
2017-12-26T21:18:40.054Z,51.30
2017-12-26T21:21:07.486Z,51.00
2017-12-26T21:23:34.933Z,50.90
2017-12-26T21:26:03.133Z,50.90
2017-12-26T21:28:30.556Z,50.90
2017-12-26T21:30:59.682Z,50.90
2017-12-26T21:33:27.155Z,50.90
2017-12-26T21:35:54.619Z,50.80
2017-12-26T21:38:22.186Z,50.90
2017-12-26T21:40:50.566Z,50.80
2017-12-26T21:43:17.994Z,50.80
2017-12-26T21:45:45.418Z,50.80
2017-12-26T21:48:12.847Z,50.80
2017-12-26T21:50:41.047Z,50.80
2017-12-26T21:53:08.475Z,50.80
2017-12-26T21:55:36.674Z,50.80
2017-12-26T21:58:04.110Z,50.70
2017-12-26T22:00:32.302Z,50.80
2017-12-26T22:02:59.762Z,50.70
2017-12-26T22:05:27.191Z,50.70
2017-12-26T22:07:55.386Z,50.70
2017-12-26T22:10:22.814Z,50.70
2017-12-26T22:12:51.025Z,50.70
2017-12-26T22:15:18.479Z,50.70
2017-12-26T22:17:45.907Z,50.70
2017-12-26T22:20:14.102Z,50.60
2017-12-26T22:22:41.530Z,50.60
2017-12-26T22:25:09.726Z,50.60
2017-12-26T22:27:37.153Z,50.60
2017-12-26T22:30:05.355Z,50.90
2017-12-26T22:32:32.770Z,50.60
2017-12-26T22:35:00.209Z,50.60
2017-12-26T22:37:27.638Z,50.60
2017-12-26T22:39:55.117Z,50.60
2017-12-26T22:42:22.564Z,50.50
2017-12-26T22:44:50.012Z,50.50
2017-12-26T22:47:17.455Z,50.60
2017-12-26T22:49:44.878Z,50.50
2017-12-26T22:52:13.069Z,50.50
2017-12-26T22:54:40.502Z,50.50
2017-12-26T22:57:08.698Z,50.50
2017-12-26T22:59:36.120Z,50.50
2017-12-26T23:02:03.554Z,50.50
2017-12-26T23:04:30.993Z,50.50
2017-12-26T23:06:58.422Z,50.50
2017-12-26T23:09:25.850Z,50.50
2017-12-26T23:11:54.050Z,50.50
2017-12-26T23:14:27.129Z,50.40
2017-12-26T23:17:00.309Z,50.40
2017-12-26T23:19:28.501Z,50.50
2017-12-26T23:21:55.932Z,50.50
2017-12-26T23:24:29.872Z,50.50
2017-12-26T23:27:02.958Z,50.50
2017-12-26T23:29:35.994Z,50.40
2017-12-26T23:32:09.246Z,50.40
2017-12-26T23:34:42.415Z,50.40
2017-12-26T23:40:21.721Z,50.30
2017-12-26T23:42:55.560Z,50.40
2017-12-26T23:45:29.465Z,50.40
2017-12-26T23:48:03.414Z,50.40
2017-12-26T23:50:36.609Z,50.40
2017-12-26T23:56:13.759Z,50.20
2017-12-26T23:58:47.714Z,50.30
